Time;durP1;ratioP1;P1;durP2;ratioP2;P2;SDS_P1;SDS_P2;PMS_P1;PMS_P2;Temp;Humidity;BMP_temperature;BMP_pressure;BME280_temperature;BME280_humidity;BME280_pressure;Samples;Min_cycle;Max_cycle;Signal;HPM_P1;HPM_P2
2022/10/03 03:03:19;;;;;;;1.00;0.50;;;18.10;49.40;;;;;;4886000;28;45901;-63
2022/10/03 03:06:28;;;;;;;0.70;0.70;;;18.10;49.50;;;;;;4904053;28;45658;-65
2022/10/03 03:09:02;;;;;;;0.50;0.50;;;18.10;49.40;;;;;;4910397;28;45120;-64
2022/10/03 03:11:55;;;;;;;0.40;0.40;;;18.10;49.40;;;;;;4909598;28;46141;-63
2022/10/03 03:14:56;;;;;;;0.80;0.50;;;18.10;49.40;;;;;;4895629;28;44652;-65
2022/10/03 03:17:32;;;;;;;1.02;0.60;;;18.10;49.50;;;;;;4904231;28;45269;-63
2022/10/03 03:20:01;;;;;;;1.83;0.57;;;18.10;49.40;;;;;;4895454;28;45286;-64
2022/10/03 03:23:04;;;;;;;0.68;0.50;;;18.10;49.40;;;;;;4893611;28;47035;-64
2022/10/03 03:25:29;;;;;;;0.50;0.50;;;18.10;49.40;;;;;;4910540;28;45284;-63
2022/10/03 03:28:36;;;;;;;0.57;0.50;;;18.10;49.40;;;;;;4902401;28;45723;-64
2022/10/03 03:31:11;;;;;;;0.70;0.50;;;18.10;49.40;;;;;;4879359;28;45180;-63
2022/10/03 03:34:05;;;;;;;0.68;0.55;;;18.10;49.40;;;;;;4897795;28;46114;-63
2022/10/03 03:36:36;;;;;;;0.88;0.50;;;18.00;49.40;;;;;;4896449;28;45512;-64
2022/10/03 03:39:09;;;;;;;1.30;0.68;;;18.00;49.40;;;;;;4892190;28;45338;-65
2022/10/03 03:42:11;;;;;;;1.23;0.63;;;18.10;49.40;;;;;;4874973;28;45486;-63
2022/10/03 03:44:51;;;;;;;1.23;0.70;;;18.10;49.50;;;;;;4911497;28;47713;-63
2022/10/03 03:47:33;;;;;;;0.85;0.60;;;18.00;49.40;;;;;;4911676;28;45152;-62
2022/10/03 03:50:14;;;;;;;0.50;0.50;;;18.10;49.40;;;;;;4913991;28;45384;-63
2022/10/03 03:53:04;;;;;;;0.80;0.52;;;18.00;49.40;;;;;;4912939;28;45278;-65
2022/10/03 03:55:58;;;;;;;0.47;0.40;;;18.10;49.50;;;;;;4916934;28;47056;-63
2022/10/03 03:58:38;;;;;;;1.13;0.60;;;18.00;49.40;;;;;;4898661;28;45190;-63
2022/10/03 04:01:24;;;;;;;1.27;0.88;;;18.10;49.40;;;;;;4894696;28;44762;-67
2022/10/03 04:04:09;;;;;;;1.20;0.55;;;18.10;49.40;;;;;;4902201;28;45339;-64
2022/10/03 04:07:02;;;;;;;1.00;0.80;;;18.00;49.30;;;;;;4915573;28;45961;-66
2022/10/03 04:09:46;;;;;;;0.88;0.60;;;18.00;49.40;;;;;;4893717;28;46175;-63
2022/10/03 04:12:46;;;;;;;1.35;0.57;;;18.10;49.50;;;;;;4898944;28;45304;-63
2022/10/03 04:15:49;;;;;;;0.50;0.50;;;18.00;49.40;;;;;;4913883;28;45216;-66
2022/10/03 04:18:59;;;;;;;0.63;0.52;;;18.00;49.40;;;;;;4880292;28;47127;-62
2022/10/03 04:21:54;;;;;;;1.55;0.77;;;18.00;49.40;;;;;;4914708;28;45281;-63
2022/10/03 04:24:46;;;;;;;1.40;0.80;;;18.00;49.40;;;;;;4899861;28;45420;-67
2022/10/03 04:27:49;;;;;;;0.77;0.70;;;18.00;49.40;;;;;;4897346;28;45778;-63
2022/10/03 04:30:16;;;;;;;1.02;0.70;;;18.00;49.40;;;;;;4914813;28;45851;-65
2022/10/03 04:32:42;;;;;;;0.50;0.50;;;18.00;49.30;;;;;;4915725;28;45172;-65
2022/10/03 04:35:15;;;;;;;0.88;0.50;;;18.00;49.30;;;;;;4916438;28;45387;-64
2022/10/03 04:38:05;;;;;;;0.75;0.43;;;18.00;49.40;;;;;;4898415;28;45434;-63
2022/10/03 04:40:49;;;;;;;1.02;0.50;;;18.00;49.40;;;;;;4895576;28;46357;-63
2022/10/03 04:43:23;;;;;;;0.70;0.50;;;18.00;49.40;;;;;;4913259;28;45667;-63
2022/10/03 04:46:18;;;;;;;0.40;0.40;;;18.00;49.40;;;;;;4898490;28;45287;-68
2022/10/03 04:49:00;;;;;;;1.05;0.60;;;18.00;49.40;;;;;;4874306;28;45234;-65
2022/10/03 04:52:14;;;;;;;0.60;0.60;;;18.00;49.40;;;;;;4893861;28;45245;-65
2022/10/03 04:54:47;;;;;;;1.50;0.70;;;18.00;49.40;;;;;;4843265;28;45652;-63
2022/10/03 04:57:51;;;;;;;1.13;0.70;;;18.00;49.40;;;;;;4899093;28;45318;-65
2022/10/03 05:00:28;;;;;;;0.65;0.50;;;18.00;49.40;;;;;;4896495;28;45354;-63
2022/10/03 05:03:05;;;;;;;1.77;0.90;;;18.00;49.40;;;;;;4895332;28;45293;-63
2022/10/03 05:05:42;;;;;;;1.15;0.70;;;18.00;49.30;;;;;;4882170;28;44991;-64
2022/10/03 05:08:14;;;;;;;0.65;0.57;;;18.00;49.40;;;;;;4915403;28;45220;-64
2022/10/03 05:11:06;;;;;;;1.30;0.73;;;18.00;49.40;;;;;;4914913;28;45512;-64
2022/10/03 05:14:03;;;;;;;1.70;0.68;;;18.00;49.40;;;;;;4895270;28;45622;-68
2022/10/03 05:16:36;;;;;;;1.13;0.70;;;18.00;49.40;;;;;;4899340;28;45302;-66
2022/10/03 05:19:08;;;;;;;;;;;18.00;49.40;;;;;;4916226;28;45522;-64
2022/10/03 05:21:41;;;;;;;0.63;0.57;;;18.00;49.50;;;;;;4896134;28;45604;-64
2022/10/03 05:24:24;;;;;;;0.75;0.50;;;17.90;49.40;;;;;;4895569;28;46229;-64
2022/10/03 05:27:00;;;;;;;0.93;0.60;;;18.00;49.40;;;;;;4893768;28;45570;-65
2022/10/03 05:29:58;;;;;;;1.35;0.63;;;17.90;49.40;;;;;;4897836;28;45667;-65
2022/10/03 05:32:59;;;;;;;1.05;0.60;;;17.90;49.40;;;;;;4893739;28;45023;-66
2022/10/03 05:36:06;;;;;;;0.55;0.52;;;17.90;49.40;;;;;;4914396;28;46029;-65
2022/10/03 05:38:53;;;;;;;0.70;0.50;;;17.90;49.40;;;;;;4867590;28;45314;-64
2022/10/03 05:41:22;;;;;;;0.93;0.77;;;17.90;49.40;;;;;;4911919;28;45815;-65
2022/10/03 05:43:57;;;;;;;0.82;0.63;;;18.00;49.40;;;;;;4896594;28;45250;-64
2022/10/03 05:46:46;;;;;;;0.70;0.50;;;17.90;49.40;;;;;;4913891;28;46189;-66
2022/10/03 05:49:40;;;;;;;0.75;0.70;;;17.90;49.40;;;;;;4899260;28;45210;-63
2022/10/03 05:52:38;;;;;;;0.80;0.55;;;18.00;49.40;;;;;;4912324;28;45317;-62
2022/10/03 05:55:35;;;;;;;0.90;0.52;;;17.90;49.40;;;;;;4898008;28;44941;-65
2022/10/03 05:58:16;;;;;;;0.85;0.68;;;17.90;49.40;;;;;;4904298;28;46278;-64
2022/10/03 06:01:01;;;;;;;1.33;0.70;;;17.90;49.40;;;;;;4914400;28;45603;-66
2022/10/03 06:04:04;;;;;;;0.68;0.60;;;18.00;49.40;;;;;;4914567;28;45432;-64
2022/10/03 06:06:43;;;;;;;1.05;0.70;;;18.00;49.40;;;;;;4899345;28;44717;-63
2022/10/03 06:09:43;;;;;;;1.00;0.52;;;17.90;49.40;;;;;;4896695;28;46876;-64
2022/10/03 06:12:23;;;;;;;0.63;0.52;;;17.90;49.50;;;;;;4896634;28;45253;-65
2022/10/03 06:15:09;;;;;;;0.70;0.68;;;17.90;49.40;;;;;;4884353;28;45265;-64
2022/10/03 06:17:57;;;;;;;0.70;0.65;;;17.90;49.50;;;;;;4911931;28;45819;-66
2022/10/03 06:20:59;;;;;;;0.70;0.50;;;17.90;49.40;;;;;;4895286;28;46120;-67
2022/10/03 06:24:03;;;;;;;1.40;0.90;;;18.00;49.50;;;;;;4896345;28;45448;-63
2022/10/03 06:26:44;;;;;;;0.50;0.40;;;17.90;49.50;;;;;;4913978;28;45582;-64
2022/10/03 06:29:27;;;;;;;0.63;0.50;;;17.90;49.50;;;;;;4892939;28;45291;-67
2022/10/03 06:32:05;;;;;;;0.63;0.63;;;17.90;49.40;;;;;;4912663;28;46098;-65
2022/10/03 06:35:03;;;;;;;0.80;0.70;;;17.90;49.40;;;;;;4912564;28;45599;-64
2022/10/03 06:37:46;;;;;;;1.38;0.80;;;17.90;49.40;;;;;;4912136;28;45456;-65
2022/10/03 06:40:40;;;;;;;0.60;0.60;;;17.90;49.40;;;;;;4912996;28;46267;-62
2022/10/03 06:43:23;;;;;;;0.75;0.70;;;17.90;49.40;;;;;;4907734;28;46556;-66
2022/10/03 06:45:59;;;;;;;1.60;0.60;;;17.90;49.40;;;;;;4893139;28;47043;-64
2022/10/03 06:48:53;;;;;;;0.88;0.75;;;17.90;49.40;;;;;;4896624;28;45217;-65
2022/10/03 06:51:25;;;;;;;0.82;0.60;;;18.00;49.40;;;;;;4909767;28;45275;-64
2022/10/03 06:53:56;;;;;;;0.75;0.70;;;18.00;49.40;;;;;;4912855;28;46836;-64
2022/10/03 06:56:39;;;;;;;0.52;0.52;;;17.90;49.40;;;;;;4910434;28;44730;-63
2022/10/03 06:59:18;;;;;;;0.40;0.40;;;17.90;49.40;;;;;;4907862;28;45423;-65
2022/10/03 07:02:06;;;;;;;0.68;0.63;;;17.90;49.50;;;;;;4908340;28;45576;-64
2022/10/03 07:04:44;;;;;;;0.45;0.45;;;17.90;49.50;;;;;;4893807;28;45248;-65
2022/10/03 07:07:31;;;;;;;0.88;0.68;;;17.90;49.50;;;;;;4895957;28;45280;-63
2022/10/03 07:10:34;;;;;;;0.68;0.50;;;17.90;49.50;;;;;;4915044;28;45632;-64
2022/10/03 07:13:09;;;;;;;0.60;0.55;;;17.90;49.40;;;;;;4915732;28;45329;-63
2022/10/03 07:15:56;;;;;;;0.60;0.60;;;17.90;49.40;;;;;;4911355;28;46100;-64
2022/10/03 07:18:25;;;;;;;0.63;0.60;;;17.90;49.40;;;;;;4910874;28;45264;-64
2022/10/03 07:21:00;;;;;;;1.13;0.50;;;17.90;49.40;;;;;;4917691;28;45595;-63
2022/10/03 07:23:45;;;;;;;0.52;0.52;;;17.90;49.40;;;;;;4913855;28;44904;-64
2022/10/03 07:26:14;;;;;;;0.90;0.52;;;18.00;49.30;;;;;;4901369;28;47251;-64
2022/10/03 07:29:03;;;;;;;1.27;0.63;;;17.90;49.30;;;;;;4919101;28;45346;-64
2022/10/03 07:31:41;;;;;;;0.55;0.55;;;17.90;49.90;;;;;;4906972;28;45446;-64
2022/10/03 07:34:30;;;;;;;0.50;0.40;;;17.90;49.30;;;;;;4905648;28;44688;-63
2022/10/03 07:40:23;;;;;;;1.05;0.60;;;18.00;49.40;;;;;;4910155;28;45943;-63
2022/10/03 07:43:14;;;;;;;0.40;0.40;;;18.00;49.30;;;;;;4905631;28;44791;-64
2022/10/03 07:46:17;;;;;;;1.38;0.70;;;18.00;49.20;;;;;;4896766;28;45344;-64
2022/10/03 07:49:14;;;;;;;0.60;0.50;;;18.00;49.20;;;;;;4923245;28;46128;-63
2022/10/03 07:51:43;;;;;;;1.05;0.70;;;18.10;49.10;;;;;;4899269;28;45220;-68
2022/10/03 07:54:46;;;;;;;0.90;0.80;;;18.00;49.00;;;;;;4920529;28;45218;-64
2022/10/03 07:57:23;;;;;;;0.47;0.40;;;18.10;49.00;;;;;;4921216;28;45174;-60
2022/10/03 08:00:04;;;;;;;0.68;0.55;;;18.10;48.90;;;;;;4892510;28;45997;-63
2022/10/03 08:03:04;;;;;;;0.63;0.50;;;18.20;48.90;;;;;;4925519;28;45562;-63
2022/10/03 08:05:52;;;;;;;0.70;0.70;;;18.10;48.80;;;;;;4907493;28;44739;-63
2022/10/03 08:08:33;;;;;;;0.70;0.52;;;18.20;48.80;;;;;;4894592;28;45275;-63
2022/10/03 08:11:18;;;;;;;0.45;0.32;;;18.20;48.70;;;;;;4917694;28;46063;-66
2022/10/03 08:13:59;;;;;;;0.70;0.60;;;18.20;48.70;;;;;;4917351;28;45462;-63
2022/10/03 08:16:59;;;;;;;0.70;0.60;;;18.30;48.70;;;;;;4919171;28;45311;-63
2022/10/03 08:19:32;;;;;;;0.60;0.60;;;18.30;49.20;;;;;;4895858;28;45282;-64
2022/10/03 08:22:30;;;;;;;1.05;0.73;;;18.30;48.70;;;;;;4887627;28;46194;-64
2022/10/03 08:25:17;;;;;;;2.20;0.73;;;18.30;48.60;;;;;;4906065;28;45410;-63
2022/10/03 08:28:08;;;;;;;0.98;0.55;;;18.30;48.60;;;;;;4918678;28;45515;-67
2022/10/03 08:30:55;;;;;;;0.60;0.60;;;18.30;48.50;;;;;;4920871;28;45229;-64
2022/10/03 08:33:52;;;;;;;0.60;0.50;;;18.30;48.50;;;;;;4919212;28;45915;-64
2022/10/03 08:36:41;;;;;;;1.05;0.60;;;18.40;48.50;;;;;;4903609;28;45320;-64
2022/10/03 08:39:44;;;;;;;0.65;0.63;;;18.30;48.50;;;;;;4914403;28;44738;-63
2022/10/03 08:42:34;;;;;;;1.25;0.65;;;18.30;48.60;;;;;;4915340;28;47013;-65
2022/10/03 08:45:11;;;;;;;0.40;0.40;;;18.30;48.70;;;;;;4914934;28;46111;-63
2022/10/03 08:47:49;;;;;;;0.90;0.77;;;18.30;48.70;;;;;;4919380;28;44841;-63
2022/10/03 08:50:46;;;;;;;1.88;0.60;;;18.30;48.80;;;;;;4894403;28;45220;-63
2022/10/03 08:53:31;;;;;;;1.10;0.73;;;18.30;48.80;;;;;;4900684;28;45514;-63
2022/10/03 08:56:12;;;;;;;2.05;1.50;;;18.30;48.80;;;;;;4914877;28;46803;-61
2022/10/03 08:59:14;;;;;;;5.88;1.92;;;18.20;51.10;;;;;;4889736;28;45559;-64
2022/10/03 09:02:02;;;;;;;8.50;2.90;;;18.10;52.40;;;;;;4897749;28;45384;-63
2022/10/03 09:05:03;;;;;;;6.43;2.70;;;18.00;52.80;;;;;;4887980;28;45198;-63
2022/10/03 09:07:57;;;;;;;6.93;2.70;;;17.90;54.20;;;;;;4900274;28;45940;-62
2022/10/03 09:10:42;;;;;;;7.03;3.03;;;17.80;54.60;;;;;;4914801;28;44707;-62
2022/10/03 09:13:46;;;;;;;7.97;2.88;;;17.70;54.70;;;;;;4899680;28;45639;-62
2022/10/03 09:16:41;;;;;;;8.10;3.00;;;17.70;55.00;;;;;;4912865;28;45597;-64
2022/10/03 09:19:41;;;;;;;6.97;2.80;;;17.60;54.80;;;;;;4917189;28;45248;-63
2022/10/03 09:22:09;;;;;;;9.35;2.80;;;17.70;54.70;;;;;;4914706;28;45193;-64
2022/10/03 09:25:18;;;;;;;7.93;2.33;;;17.80;53.90;;;;;;4915469;28;44729;-62
2022/10/03 09:28:00;;;;;;;6.35;2.28;;;17.80;54.20;;;;;;4902265;28;45248;-62
2022/10/03 09:30:34;;;;;;;5.93;2.22;;;17.80;53.80;;;;;;4916361;28;46032;-62
2022/10/03 09:33:30;;;;;;;5.20;2.08;;;17.90;53.50;;;;;;4918415;28;45394;-63
2022/10/03 09:36:19;;;;;;;8.45;2.20;;;17.90;53.50;;;;;;4911971;28;45302;-63
2022/10/03 09:39:05;;;;;;;5.38;2.50;;;18.00;53.30;;;;;;4903977;28;45236;-64
2022/10/03 09:41:49;;;;;;;5.18;2.30;;;18.00;52.70;;;;;;4913911;28;47076;-64
2022/10/03 09:44:29;;;;;;;7.28;2.03;;;18.10;52.80;;;;;;4901918;28;45596;-65
2022/10/03 09:47:34;;;;;;;7.65;1.92;;;18.10;52.80;;;;;;4916022;28;45129;-65
2022/10/03 09:49:59;;;;;;;5.80;1.92;;;18.10;53.10;;;;;;4917122;28;45317;-64
2022/10/03 09:52:40;;;;;;;5.63;2.08;;;18.10;52.70;;;;;;4916740;28;46308;-63
2022/10/03 09:55:30;;;;;;;6.47;1.88;;;18.20;52.90;;;;;;4913819;28;45156;-63
2022/10/03 09:58:20;;;;;;;6.00;2.30;;;18.20;52.90;;;;;;4889771;28;44735;-65
2022/10/03 10:00:54;;;;;;;5.63;2.10;;;18.20;52.60;;;;;;4903451;28;45477;-66
2022/10/03 10:03:37;;;;;;;6.75;2.22;;;18.20;52.50;;;;;;4898867;28;45726;-63
2022/10/03 10:06:22;;;;;;;4.90;2.05;;;18.20;52.50;;;;;;4918094;28;45612;-64
2022/10/03 10:09:26;;;;;;;5.15;1.85;;;18.30;52.50;;;;;;4915869;28;45308;-64
2022/10/03 10:12:22;;;;;;;4.38;1.73;;;18.30;52.30;;;;;;4899748;28;45461;-63
2022/10/03 10:15:12;;;;;;;4.53;2.05;;;18.30;52.10;;;;;;4898989;28;46196;-64
2022/10/03 10:17:59;;;;;;;3.88;2.20;;;18.30;52.00;;;;;;4885656;28;45705;-63
2022/10/03 10:20:29;;;;;;;5.15;1.92;;;18.30;51.90;;;;;;4912434;28;45392;-66
2022/10/03 10:23:04;;;;;;;6.50;1.88;;;18.30;51.90;;;;;;4916020;28;45031;-63
2022/10/03 10:25:57;;;;;;;4.45;1.80;;;18.30;51.90;;;;;;4914436;28;45325;-64
2022/10/03 10:28:51;;;;;;;4.57;1.77;;;18.30;51.90;;;;;;4896845;28;45295;-62
2022/10/03 10:31:19;;;;;;;;;;;18.40;51.90;;;;;;4900226;28;45431;-63
2022/10/03 10:33:57;;;;;;;3.92;1.30;;;18.40;52.00;;;;;;4916353;28;45577;-64
2022/10/03 10:37:00;;;;;;;4.68;2.00;;;18.40;51.60;;;;;;4913707;28;45405;-64
2022/10/03 10:39:51;;;;;;;4.75;2.05;;;18.40;51.70;;;;;;4895025;28;45180;-64
2022/10/03 10:42:36;;;;;;;4.28;1.75;;;18.40;51.60;;;;;;4917074;28;44703;-65
2022/10/03 10:45:29;;;;;;;2.70;1.42;;;18.40;51.50;;;;;;4913634;28;45215;-64
2022/10/03 10:48:10;;;;;;;3.55;1.38;;;18.50;51.50;;;;;;4914770;28;44833;-64
2022/10/03 10:51:04;;;;;;;3.17;1.50;;;18.40;51.40;;;;;;4901645;28;44612;-65
2022/10/03 10:54:06;;;;;;;3.45;1.70;;;18.50;51.40;;;;;;4918564;28;44797;-64
2022/10/03 10:56:53;;;;;;;3.33;1.80;;;18.50;51.30;;;;;;4908739;28;44900;-64
2022/10/03 10:59:40;;;;;;;4.82;1.77;;;18.50;51.30;;;;;;4913570;28;46198;-64
2022/10/03 11:02:33;;;;;;;2.13;1.52;;;18.50;51.20;;;;;;4915848;28;45246;-65
2022/10/03 11:05:31;;;;;;;4.22;1.75;;;18.50;51.20;;;;;;4917895;28;45252;-64
2022/10/03 11:08:22;;;;;;;6.57;1.90;;;18.50;51.20;;;;;;4917487;28;45208;-66
2022/10/03 11:11:12;;;;;;;3.33;1.30;;;18.50;51.20;;;;;;4897942;28;46326;-64
2022/10/03 11:13:56;;;;;;;2.80;1.70;;;18.50;51.10;;;;;;4908130;28;45251;-65
2022/10/03 11:16:33;;;;;;;2.63;1.48;;;18.50;51.10;;;;;;4910506;28;45274;-64
2022/10/03 11:19:27;;;;;;;1.83;1.15;;;18.50;51.10;;;;;;4904766;28;45278;-64
2022/10/03 11:22:46;;;;;;;2.72;1.55;;;18.50;51.00;;;;;;4893765;28;45183;-65
2022/10/03 11:25:50;;;;;;;3.42;1.63;;;18.60;51.00;;;;;;4821291;29;45415;-64
2022/10/03 11:28:27;;;;;;;3.58;1.88;;;18.60;51.10;;;;;;4895566;28;45200;-64
2022/10/03 11:31:30;;;;;;;4.60;1.52;;;18.60;50.90;;;;;;4890967;28;45001;-64
2022/10/03 11:34:21;;;;;;;3.17;1.70;;;18.60;50.80;;;;;;4910795;28;46197;-64
2022/10/03 11:37:08;;;;;;;2.22;1.23;;;18.60;50.80;;;;;;4901028;28;45501;-64
2022/10/03 11:39:38;;;;;;;2.33;1.23;;;18.60;50.80;;;;;;4916767;28;45227;-65
2022/10/03 11:42:17;;;;;;;5.10;1.63;;;18.60;50.80;;;;;;4881380;28;45627;-64
2022/10/03 11:44:55;;;;;;;2.50;1.55;;;18.60;50.80;;;;;;4920073;28;45237;-63
2022/10/03 11:47:56;;;;;;;4.47;1.80;;;18.60;50.70;;;;;;4896992;28;44791;-64
2022/10/03 11:50:31;;;;;;;1.73;1.08;;;18.60;50.60;;;;;;4897642;28;44720;-66
2022/10/03 11:53:34;;;;;;;3.35;1.60;;;18.60;50.60;;;;;;4902234;28;45361;-64
2022/10/03 11:56:23;;;;;;;2.88;1.67;;;18.70;50.60;;;;;;4915350;28;46190;-64
2022/10/03 11:59:33;;;;;;;2.70;1.40;;;18.70;50.50;;;;;;4905612;28;46817;-66
2022/10/03 12:02:16;;;;;;;2.80;1.30;;;18.70;50.50;;;;;;4898659;28;44740;-65
2022/10/03 12:04:57;;;;;;;4.70;1.67;;;18.70;50.40;;;;;;4894676;28;45265;-63
2022/10/03 12:11:17;;;;;;;3.70;1.50;;;18.70;50.40;;;;;;4832126;29;45648;-64
2022/10/03 12:14:08;;;;;;;3.45;1.50;;;18.70;50.30;;;;;;4801124;29;44831;-64
2022/10/03 12:16:56;;;;;;;1.95;1.20;;;18.70;50.30;;;;;;4890412;28;45472;-64
2022/10/03 12:19:41;;;;;;;1.52;1.30;;;18.80;50.30;;;;;;4893954;28;46829;-66
2022/10/03 12:22:40;;;;;;;2.72;1.30;;;18.80;50.30;;;;;;4917737;28;45297;-65
2022/10/03 12:25:15;;;;;;;2.70;1.42;;;18.80;50.30;;;;;;4901737;28;45214;-68
2022/10/03 12:27:59;;;;;;;1.75;1.17;;;18.80;50.30;;;;;;4904574;28;45229;-64
2022/10/03 12:30:26;;;;;;;2.90;1.30;;;18.80;50.20;;;;;;4919350;28;46094;-64
2022/10/03 12:33:11;;;;;;;2.95;1.55;;;18.80;50.20;;;;;;4905206;28;45248;-63
2022/10/03 12:35:39;;;;;;;3.97;1.50;;;18.80;50.20;;;;;;4921577;28;44735;-64
2022/10/03 12:38:16;;;;;;;3.35;1.50;;;18.80;50.10;;;;;;4903686;28;45687;-63
2022/10/03 12:40:43;;;;;;;3.22;1.60;;;18.80;50.10;;;;;;4906277;28;46268;-64
2022/10/03 12:43:33;;;;;;;3.85;1.50;;;18.80;50.10;;;;;;4868394;28;45447;-65
2022/10/03 12:46:02;;;;;;;6.13;1.30;;;18.80;50.10;;;;;;4914278;28;45505;-63
2022/10/03 12:48:31;;;;;;;2.33;1.58;;;18.80;50.00;;;;;;4900029;28;45664;-63
2022/10/03 12:51:18;;;;;;;1.58;1.20;;;18.80;50.10;;;;;;4918185;28;45491;-63
2022/10/03 12:54:06;;;;;;;2.40;1.40;;;18.90;50.10;;;;;;4918230;28;45344;-63
2022/10/03 12:56:36;;;;;;;4.60;1.67;;;18.90;50.10;;;;;;4902745;28;44746;-64
2022/10/03 12:59:17;;;;;;;2.13;1.33;;;18.90;50.00;;;;;;4902077;28;45207;-63
2022/10/03 13:01:46;;;;;;;4.07;1.20;;;18.90;50.00;;;;;;4916070;28;47125;-64
2022/10/03 13:04:40;;;;;;;2.35;1.50;;;19.00;50.00;;;;;;4916907;28;45732;-63
2022/10/03 13:07:14;;;;;;;;;;;19.00;50.00;;;;;;4903918;28;45264;-64
2022/10/03 13:09:49;;;;;;;2.53;1.52;;;19.00;50.00;;;;;;4918003;28;45344;-64
2022/10/03 13:12:22;;;;;;;2.03;1.33;;;19.00;49.90;;;;;;4915382;28;46070;-65
2022/10/03 13:15:16;;;;;;;2.55;1.52;;;19.00;49.90;;;;;;4900954;28;45560;-64
2022/10/03 13:18:13;;;;;;;3.58;1.67;;;19.00;49.80;;;;;;4917869;28;45449;-63
2022/10/03 13:20:42;;;;;;;2.75;1.67;;;19.00;49.80;;;;;;4895395;28;45134;-64
2022/10/03 13:23:33;;;;;;;2.97;1.30;;;19.00;49.80;;;;;;4905409;28;45210;-65
2022/10/03 13:26:11;;;;;;;2.38;1.42;;;19.10;49.80;;;;;;4902529;28;45255;-64
2022/10/03 13:28:43;;;;;;;4.40;1.42;;;19.10;49.90;;;;;;4918890;28;45126;-64
2022/10/03 13:31:22;;;;;;;3.08;1.13;;;19.10;49.80;;;;;;4900974;28;45532;-67
2022/10/03 13:33:56;;;;;;;1.85;1.27;;;19.10;49.70;;;;;;4886059;28;46044;-63
2022/10/03 13:36:25;;;;;;;2.63;1.00;;;19.20;49.70;;;;;;4881145;28;45340;-64
2022/10/03 13:39:22;;;;;;;2.72;1.33;;;19.20;49.80;;;;;;4911959;28;44682;-64
2022/10/03 13:42:36;;;;;;;4.13;1.42;;;19.20;49.70;;;;;;4892464;28;45551;-64
2022/10/03 13:45:04;;;;;;;2.80;1.13;;;19.20;49.70;;;;;;4910369;28;46134;-63
2022/10/03 13:47:58;;;;;;;4.38;1.10;;;19.20;49.70;;;;;;4886779;28;45508;-64
2022/10/03 13:50:32;;;;;;;2.80;1.38;;;19.20;49.60;;;;;;4902947;28;45714;-65
2022/10/03 13:53:00;;;;;;;2.20;1.00;;;19.20;49.60;;;;;;4921066;28;45562;-65
2022/10/03 13:55:41;;;;;;;2.50;1.20;;;19.20;49.60;;;;;;4896894;28;45052;-65
2022/10/03 13:58:25;;;;;;;2.15;1.10;;;19.30;49.60;;;;;;4902245;28;45252;-65
2022/10/03 14:01:03;;;;;;;1.80;1.10;;;19.30;49.50;;;;;;4915747;28;44736;-64
2022/10/03 14:03:50;;;;;;;2.17;1.10;;;19.30;49.60;;;;;;4897200;28;45550;-64
2022/10/03 14:06:31;;;;;;;1.83;1.20;;;19.30;49.50;;;;;;4898002;28;45071;-63
2022/10/03 14:09:10;;;;;;;2.25;1.20;;;19.30;49.50;;;;;;4893994;28;45533;-63
2022/10/03 14:11:58;;;;;;;3.47;1.10;;;19.40;49.60;;;;;;4914704;28;45273;-62
2022/10/03 14:14:55;;;;;;;3.28;1.20;;;19.30;49.50;;;;;;4903239;28;45834;-64
2022/10/03 14:17:39;;;;;;;1.95;1.23;;;19.40;49.50;;;;;;4903611;28;46517;-66
2022/10/03 14:20:12;;;;;;;4.28;1.45;;;19.40;49.50;;;;;;4902093;28;45199;-65
2022/10/03 14:22:44;;;;;;;3.13;1.30;;;19.40;49.50;;;;;;4894007;28;45005;-65
2022/10/03 14:25:44;;;;;;;2.38;1.35;;;19.40;49.50;;;;;;4915293;28;45566;-68
2022/10/03 14:28:40;;;;;;;1.23;1.00;;;19.40;49.40;;;;;;4868507;28;46039;-65
2022/10/03 14:31:09;;;;;;;1.55;1.05;;;19.40;49.50;;;;;;4864399;28;45367;-63
2022/10/03 14:33:40;;;;;;;1.70;1.08;;;19.40;49.50;;;;;;4899288;28;45261;-66
2022/10/03 14:36:12;;;;;;;2.17;1.27;;;19.50;49.50;;;;;;4897662;28;45392;-65
2022/10/03 14:39:00;;;;;;;1.65;1.05;;;19.50;49.50;;;;;;4918278;28;45178;-64
2022/10/03 14:42:05;;;;;;;2.22;1.05;;;19.50;49.50;;;;;;4917279;28;45227;-65
2022/10/03 14:44:39;;;;;;;2.95;0.98;;;19.50;49.40;;;;;;4912518;28;45371;-67
2022/10/03 14:47:10;;;;;;;1.88;1.17;;;19.50;49.50;;;;;;4898390;28;44820;-64
2022/10/03 14:49:37;;;;;;;1.30;1.00;;;19.50;49.40;;;;;;4901211;28;45966;-64
2022/10/03 14:52:11;;;;;;;3.15;1.10;;;19.50;49.40;;;;;;4885946;28;45274;-65
2022/10/03 14:54:38;;;;;;;3.78;0.93;;;19.50;49.40;;;;;;4901516;28;45440;-65
2022/10/03 14:57:31;;;;;;;2.67;1.20;;;19.50;49.40;;;;;;4916948;28;45418;-64
2022/10/03 14:59:57;;;;;;;4.90;1.40;;;19.50;49.40;;;;;;4872628;28;46248;-64
2022/10/03 15:02:38;;;;;;;1.48;1.00;;;19.50;49.40;;;;;;4901554;28;45367;-65
2022/10/03 15:05:11;;;;;;;3.58;1.08;;;19.50;49.40;;;;;;4871931;28;45087;-64
2022/10/03 15:07:38;;;;;;;3.58;1.17;;;19.50;49.40;;;;;;4898754;28;44852;-63
2022/10/03 15:10:06;;;;;;;0.93;0.77;;;19.60;49.50;;;;;;4899054;28;45404;-65
2022/10/03 15:12:32;;;;;;;2.03;1.15;;;19.60;49.40;;;;;;4887263;28;45421;-64
2022/10/03 15:15:01;;;;;;;1.27;0.95;;;19.60;49.40;;;;;;4894918;28;44693;-66
2022/10/03 15:17:29;;;;;;;2.10;1.13;;;19.50;49.40;;;;;;4917351;28;44971;-63
2022/10/03 15:19:55;;;;;;;2.47;0.90;;;19.50;49.40;;;;;;4916781;28;46903;-61
2022/10/03 15:22:27;;;;;;;2.03;0.90;;;19.60;49.40;;;;;;4886686;28;45296;-66
2022/10/03 15:24:54;;;;;;;2.95;0.90;;;19.60;49.40;;;;;;4912814;28;45515;-65
2022/10/03 15:27:20;;;;;;;2.22;0.98;;;19.60;49.80;;;;;;4881463;28;44930;-64
2022/10/03 15:29:57;;;;;;;3.25;1.20;;;19.60;49.40;;;;;;4871968;28;45352;-64
2022/10/03 15:32:38;;;;;;;1.70;1.08;;;19.60;49.40;;;;;;4896865;28;44737;-64
2022/10/03 15:35:05;;;;;;;2.47;1.00;;;19.50;49.40;;;;;;4897017;28;45162;-65
2022/10/03 15:37:34;;;;;;;2.95;1.17;;;19.60;49.50;;;;;;4872576;28;45459;-65
2022/10/03 15:40:23;;;;;;;3.00;1.27;;;19.60;49.50;;;;;;4890594;28;45295;-65
2022/10/03 15:42:52;;;;;;;1.55;0.90;;;19.50;49.50;;;;;;4896688;28;44692;-64
2022/10/03 15:45:24;;;;;;;2.20;0.88;;;19.50;49.40;;;;;;4863217;28;44699;-65
2022/10/03 15:47:50;;;;;;;2.30;0.98;;;19.50;49.50;;;;;;4871988;28;45728;-65
2022/10/03 15:50:28;;;;;;;1.08;0.95;;;19.50;49.50;;;;;;4895077;28;46079;-65
2022/10/03 15:52:57;;;;;;;1.10;0.85;;;19.50;49.60;;;;;;4898509;28;45438;-65
2022/10/03 15:55:33;;;;;;;2.13;1.10;;;19.50;49.60;;;;;;4899235;28;44723;-65
2022/10/03 15:58:14;;;;;;;1.60;1.00;;;19.40;49.60;;;;;;4898031;28;45287;-65
2022/10/03 16:00:39;;;;;;;7.90;1.13;;;19.50;49.70;;;;;;4883951;28;45417;-65
2022/10/03 16:03:13;;;;;;;2.25;0.98;;;19.40;49.70;;;;;;4880266;28;45533;-65
2022/10/03 16:05:53;;;;;;;0.95;0.80;;;19.40;49.70;;;;;;4898799;28;44854;-64
2022/10/03 16:08:20;;;;;;;1.50;0.90;;;19.40;49.70;;;;;;4884148;28;44741;-65
2022/10/03 16:11:20;;;;;;;1.33;0.77;;;19.40;49.70;;;;;;4884876;28;45735;-67
2022/10/03 16:13:50;;;;;;;1.55;0.80;;;19.40;49.70;;;;;;4915590;28;45201;-65
2022/10/03 16:16:50;;;;;;;1.73;1.02;;;19.40;49.70;;;;;;4898902;28;45612;-66
2022/10/03 16:19:38;;;;;;;2.03;0.98;;;19.40;49.70;;;;;;4894902;28;45703;-65
2022/10/03 16:22:24;;;;;;;2.67;1.00;;;19.40;49.70;;;;;;4911047;28;45236;-67
2022/10/03 16:24:55;;;;;;;1.38;0.80;;;19.40;49.80;;;;;;4899265;28;45322;-66
2022/10/03 16:27:23;;;;;;;1.90;0.80;;;19.30;49.70;;;;;;4918265;28;44680;-66
2022/10/03 16:30:14;;;;;;;1.08;0.82;;;19.40;49.80;;;;;;4898046;28;45245;-64
2022/10/03 16:33:01;;;;;;;1.13;0.85;;;19.40;49.80;;;;;;4897604;28;46681;-65
2022/10/03 16:35:35;;;;;;;1.92;0.90;;;19.30;49.70;;;;;;4914687;28;45287;-65
2022/10/03 16:38:03;;;;;;;4.30;1.17;;;19.30;49.80;;;;;;4869086;28;45379;-65
2022/10/03 16:40:29;;;;;;;1.40;0.93;;;19.30;49.80;;;;;;4900727;28;45375;-67
2022/10/03 16:42:57;;;;;;;1.27;0.80;;;19.30;49.80;;;;;;4882932;28;46057;-65
2022/10/03 16:45:30;;;;;;;2.28;1.05;;;19.30;49.80;;;;;;4878412;28;46801;-64
2022/10/03 16:50:46;;;;;;;1.25;0.90;;;19.30;49.80;;;;;;4899866;28;45230;-65
2022/10/03 16:53:11;;;;;;;2.13;1.05;;;19.20;49.80;;;;;;4871811;28;46137;-65
2022/10/03 16:55:44;;;;;;;1.75;0.75;;;19.20;49.80;;;;;;4886501;28;46433;-64
2022/10/03 16:58:16;;;;;;;1.05;0.90;;;19.20;49.90;;;;;;4907909;28;45185;-68
2022/10/03 17:00:58;;;;;;;2.03;0.70;;;19.20;49.90;;;;;;4905065;28;45333;-65
2022/10/03 17:03:35;;;;;;;3.85;0.80;;;19.20;49.90;;;;;;4874651;28;46195;-64
2022/10/03 17:06:03;;;;;;;2.80;1.15;;;19.20;49.80;;;;;;4893989;28;45306;-64
2022/10/03 17:08:31;;;;;;;0.93;0.73;;;19.20;49.80;;;;;;4894810;28;44765;-65
2022/10/03 17:10:57;;;;;;;1.23;0.93;;;19.20;49.80;;;;;;4903992;28;45471;-65
2022/10/03 17:13:36;;;;;;;2.28;0.90;;;19.20;49.80;;;;;;4899166;28;46987;-64
2022/10/03 17:16:13;;;;;;;2.00;1.02;;;19.20;49.80;;;;;;4902637;28;45275;-66
2022/10/03 17:18:40;;;;;;;0.98;0.70;;;19.20;49.70;;;;;;4900778;28;45493;-65
2022/10/03 17:21:25;;;;;;;0.98;0.75;;;19.20;49.80;;;;;;4883768;28;45503;-65
2022/10/03 17:24:16;;;;;;;1.33;0.80;;;19.10;49.80;;;;;;4893155;28;46231;-62